createdAt,value
2019-01-04T00:00:25.645Z,27.70
2019-01-04T00:02:55.022Z,27.90
2019-01-04T00:05:24.415Z,26.77
2019-01-04T00:07:53.973Z,29.83
2019-01-04T00:10:23.247Z,29.03
2019-01-04T00:12:52.583Z,27.53
2019-01-04T00:15:21.894Z,28.17
2019-01-04T00:17:51.084Z,32.40
2019-01-04T00:20:20.507Z,30.97
2019-01-04T00:22:49.816Z,31.00
2019-01-04T00:25:19.149Z,35.63
2019-01-04T00:27:48.373Z,29.03
2019-01-04T00:30:17.753Z,31.83
2019-01-04T00:32:47.038Z,34.13
2019-01-04T00:35:16.542Z,29.90
2019-01-04T00:37:45.738Z,33.67
2019-01-04T00:40:14.979Z,29.07
2019-01-04T00:42:44.157Z,29.07
2019-01-04T00:45:13.433Z,30.00
2019-01-04T00:47:42.730Z,30.03
2019-01-04T00:50:11.946Z,27.70
2019-01-04T00:52:41.445Z,30.03
2019-01-04T00:55:24.408Z,29.93
2019-01-04T00:58:10.433Z,31.17
2019-01-04T01:01:34.348Z,29.13
2019-01-04T01:04:50.290Z,34.67
2019-01-04T01:07:43.014Z,34.47
2019-01-04T01:10:59.494Z,33.43
2019-01-04T01:14:12.035Z,30.43
2019-01-04T01:17:31.766Z,27.33
2019-01-04T01:20:24.419Z,27.40
2019-01-04T01:23:29.696Z,26.00
2019-01-04T01:26:24.333Z,35.23
2019-01-04T01:29:49.277Z,41.10
2019-01-04T01:32:44.730Z,40.97
2019-01-04T01:35:46.387Z,39.03
2019-01-04T01:39:06.095Z,38.40
2019-01-04T01:42:10.925Z,36.33
2019-01-04T01:45:37.605Z,39.97
2019-01-04T01:48:15.920Z,40.43
2019-01-04T01:51:16.353Z,39.37
2019-01-04T01:53:46.631Z,34.13
2019-01-04T01:56:16.092Z,37.10
2019-01-04T01:58:45.361Z,33.57
2019-01-04T02:01:14.812Z,34.57
2019-01-04T02:03:44.293Z,36.20
2019-01-04T02:06:13.486Z,35.20
2019-01-04T02:08:42.940Z,35.80
2019-01-04T02:11:12.479Z,37.63
2019-01-04T02:13:41.881Z,31.77
2019-01-04T02:16:11.130Z,30.37
2019-01-04T02:18:40.744Z,33.23
2019-01-04T02:21:09.986Z,32.17
2019-01-04T02:23:39.526Z,31.37
2019-01-04T02:26:08.795Z,28.07
2019-01-04T02:28:38.146Z,29.60
2019-01-04T02:31:07.517Z,28.90
2019-01-04T02:33:37.423Z,27.07
2019-01-04T02:36:06.648Z,26.93
2019-01-04T02:38:35.820Z,28.70
2019-01-04T02:41:05.034Z,27.90
2019-01-04T02:43:34.215Z,29.10
2019-01-04T02:46:03.749Z,27.40
2019-01-04T02:48:32.948Z,25.50
2019-01-04T02:51:02.138Z,24.47
2019-01-04T02:53:31.312Z,26.43
2019-01-04T02:56:00.496Z,26.87
2019-01-04T02:58:29.665Z,23.50
2019-01-04T03:00:58.901Z,26.43
2019-01-04T03:03:28.446Z,28.03
2019-01-04T03:05:57.773Z,27.53
2019-01-04T03:08:27.014Z,27.07
2019-01-04T03:10:56.341Z,26.77
2019-01-04T03:13:25.773Z,27.27
2019-01-04T03:15:54.946Z,25.30
2019-01-04T03:18:24.144Z,23.53
2019-01-04T03:20:53.589Z,23.13
2019-01-04T03:23:22.919Z,21.57
2019-01-04T03:25:52.105Z,21.97
2019-01-04T03:28:21.300Z,25.73
2019-01-04T03:30:50.519Z,25.60
2019-01-04T03:33:19.800Z,24.17
2019-01-04T03:35:49.050Z,24.10
2019-01-04T03:38:18.317Z,26.17
2019-01-04T03:40:47.641Z,23.50
2019-01-04T03:43:16.869Z,20.97
2019-01-04T03:45:46.383Z,24.00
2019-01-04T03:48:15.663Z,24.37
2019-01-04T03:50:44.916Z,24.90
2019-01-04T03:53:14.134Z,23.53
2019-01-04T03:55:43.333Z,23.20
2019-01-04T03:58:12.609Z,23.43
2019-01-04T04:00:41.860Z,22.57
2019-01-04T04:03:11.393Z,23.27
2019-01-04T04:05:40.547Z,20.63
2019-01-04T04:08:09.727Z,25.13
2019-01-04T04:10:39.081Z,23.73
2019-01-04T04:13:08.440Z,23.57
2019-01-04T04:15:38.034Z,24.20
2019-01-04T04:18:07.536Z,27.90
2019-01-04T04:20:36.729Z,24.80
2019-01-04T04:23:06.158Z,28.60
2019-01-04T04:25:35.432Z,27.40
2019-01-04T04:28:04.675Z,28.07
2019-01-04T04:30:33.932Z,30.73
2019-01-04T04:33:03.109Z,27.53
2019-01-04T04:35:32.268Z,29.90
2019-01-04T04:38:01.701Z,27.47
2019-01-04T04:40:31.202Z,25.60
2019-01-04T04:43:00.399Z,26.97
2019-01-04T04:45:29.899Z,26.80
2019-01-04T04:47:59.186Z,26.10
2019-01-04T04:50:28.486Z,28.33
2019-01-04T04:52:57.714Z,26.63
2019-01-04T04:55:26.844Z,26.57
2019-01-04T04:57:56.344Z,26.53
2019-01-04T05:00:25.556Z,26.33
2019-01-04T05:02:54.810Z,22.97
2019-01-04T05:05:24.285Z,21.47
2019-01-04T05:07:53.812Z,23.60
2019-01-04T05:10:23.112Z,24.50
2019-01-04T05:12:52.280Z,22.60
2019-01-04T05:15:21.775Z,25.67
2019-01-04T05:17:50.933Z,23.20
2019-01-04T05:20:20.421Z,24.40
2019-01-04T05:22:49.566Z,27.67
2019-01-04T05:25:18.734Z,22.77
2019-01-04T05:27:47.879Z,23.10
2019-01-04T05:30:17.400Z,23.63
2019-01-04T05:32:46.546Z,24.30
2019-01-04T05:35:15.797Z,26.37
2019-01-04T05:37:44.954Z,26.93
2019-01-04T05:40:14.150Z,27.07
2019-01-04T05:42:43.342Z,26.67
2019-01-04T05:45:12.534Z,30.93
2019-01-04T05:47:42.215Z,34.13
2019-01-04T05:50:11.380Z,32.23
2019-01-04T05:52:40.532Z,33.73
2019-01-04T05:55:09.707Z,28.90
2019-01-04T05:57:38.966Z,29.77
2019-01-04T06:00:09.384Z,25.87
2019-01-04T06:02:38.616Z,28.70
2019-01-04T06:05:07.845Z,25.53
2019-01-04T06:07:36.998Z,27.30
2019-01-04T06:10:06.939Z,24.77
2019-01-04T06:12:36.095Z,25.93
2019-01-04T06:15:05.662Z,28.00
2019-01-04T06:17:34.898Z,26.60
2019-01-04T06:20:04.350Z,26.13
2019-01-04T06:22:33.778Z,26.80
2019-01-04T06:25:03.209Z,25.33
2019-01-04T06:27:32.420Z,29.53
2019-01-04T06:30:01.918Z,29.73
2019-01-04T06:32:31.061Z,28.83
2019-01-04T06:35:00.425Z,25.80
2019-01-04T06:37:29.612Z,26.80
2019-01-04T06:39:59.210Z,29.27
2019-01-04T06:42:28.445Z,29.53
2019-01-04T06:44:57.629Z,26.53
2019-01-04T06:47:26.805Z,23.87
2019-01-04T06:49:56.332Z,23.57
2019-01-04T06:52:25.912Z,24.63
2019-01-04T06:55:39.349Z,26.70
2019-01-04T06:58:08.822Z,22.53
2019-01-04T07:00:38.246Z,22.93
2019-01-04T07:03:07.491Z,23.53
2019-01-04T07:05:37.025Z,24.13
2019-01-04T07:08:06.174Z,27.43
2019-01-04T07:10:35.455Z,26.33
2019-01-04T07:13:04.646Z,26.63
2019-01-04T07:15:33.929Z,28.30
2019-01-04T07:18:03.223Z,27.93
2019-01-04T07:20:32.753Z,25.60
2019-01-04T07:23:02.003Z,25.87
2019-01-04T07:25:31.419Z,25.60
2019-01-04T07:28:00.566Z,23.17
2019-01-04T07:30:29.732Z,24.40
2019-01-04T07:32:58.902Z,27.50
2019-01-04T07:35:28.402Z,23.87
2019-01-04T07:37:57.555Z,27.07
2019-01-04T07:40:27.069Z,30.27
2019-01-04T07:42:56.337Z,28.80
2019-01-04T07:45:25.631Z,26.70
2019-01-04T07:47:54.860Z,28.97
2019-01-04T07:50:24.028Z,30.53
2019-01-04T07:52:53.204Z,25.27
2019-01-04T07:55:22.498Z,34.77
2019-01-04T07:57:52.030Z,26.13
2019-01-04T08:00:21.459Z,25.43
2019-01-04T08:02:55.347Z,26.80
2019-01-04T08:05:26.122Z,27.60
2019-01-04T08:07:55.420Z,27.97
2019-01-04T08:10:24.806Z,25.10
2019-01-04T08:12:54.025Z,28.30
2019-01-04T08:15:23.486Z,31.47
2019-01-04T08:17:53.039Z,29.77
2019-01-04T08:20:23.053Z,30.40
2019-01-04T08:22:52.205Z,30.20
2019-01-04T08:25:21.589Z,35.87
2019-01-04T08:27:51.031Z,32.57
2019-01-04T08:30:21.103Z,33.53
2019-01-04T08:32:50.352Z,34.73
2019-01-04T08:35:19.516Z,33.73
2019-01-04T08:37:48.848Z,33.60
2019-01-04T08:40:18.427Z,37.37
2019-01-04T08:42:47.975Z,34.57
2019-01-04T08:45:17.479Z,33.00
2019-01-04T08:47:46.730Z,35.83
2019-01-04T08:50:17.506Z,31.20
2019-01-04T08:52:46.899Z,27.93
2019-01-04T08:55:23.064Z,24.50
2019-01-04T08:57:52.576Z,23.40
2019-01-04T09:00:21.804Z,24.93
2019-01-04T09:02:51.029Z,22.37
2019-01-04T09:05:20.205Z,18.07
2019-01-04T09:07:49.354Z,18.00
2019-01-04T09:10:18.968Z,18.60
2019-01-04T09:12:48.224Z,22.60
2019-01-04T09:15:17.458Z,22.57
2019-01-04T09:17:46.710Z,20.73
2019-01-04T09:20:15.863Z,18.43
2019-01-04T09:22:45.425Z,21.03
2019-01-04T09:25:14.943Z,20.30
2019-01-04T09:27:44.365Z,16.53
2019-01-04T09:30:15.321Z,18.27
2019-01-04T09:32:44.570Z,16.37
2019-01-04T09:35:14.057Z,17.43
2019-01-04T09:37:43.209Z,21.10
2019-01-04T09:40:13.062Z,22.80
2019-01-04T09:42:47.469Z,25.90
2019-01-04T09:45:16.754Z,21.30
2019-01-04T09:47:45.945Z,20.37
2019-01-04T09:50:15.378Z,20.00
2019-01-04T09:52:44.851Z,19.27
2019-01-04T09:55:14.318Z,16.37
2019-01-04T09:57:43.444Z,17.50
2019-01-04T10:00:13.565Z,19.30
2019-01-04T10:02:43.086Z,18.07
2019-01-04T10:05:12.859Z,17.70
2019-01-04T10:07:42.378Z,18.07
2019-01-04T10:10:12.403Z,17.33
2019-01-04T10:12:41.682Z,17.57
2019-01-04T10:15:13.269Z,18.40
2019-01-04T10:17:42.567Z,19.13
2019-01-04T10:20:12.026Z,19.10
2019-01-04T10:22:41.182Z,19.40
2019-01-04T10:25:10.610Z,19.47
2019-01-04T10:27:39.933Z,19.07
2019-01-04T10:30:11.785Z,18.87
2019-01-04T10:32:41.249Z,16.77
2019-01-04T10:35:10.893Z,20.63
2019-01-04T10:37:40.323Z,22.43
2019-01-04T10:40:11.211Z,18.03
2019-01-04T10:42:40.694Z,19.67
2019-01-04T10:45:09.973Z,16.80
2019-01-04T10:47:39.224Z,20.33
2019-01-04T10:50:08.682Z,23.27
2019-01-04T10:52:37.853Z,19.27
2019-01-04T10:55:07.402Z,22.37
2019-01-04T10:57:36.577Z,18.90
2019-01-04T11:00:06.692Z,16.07
2019-01-04T11:02:36.190Z,22.30
2019-01-04T11:05:05.661Z,28.13
2019-01-04T11:07:35.270Z,27.37
2019-01-04T11:10:04.893Z,19.37
2019-01-04T11:12:34.105Z,19.57
2019-01-04T11:15:03.381Z,15.10
2019-01-04T11:17:32.802Z,26.00
2019-01-04T11:20:01.955Z,20.97
2019-01-04T11:22:59.676Z,18.73
2019-01-04T11:26:01.994Z,18.63
2019-01-04T11:29:15.564Z,17.80
2019-01-04T11:31:54.278Z,16.67
2019-01-04T11:34:53.399Z,19.87
2019-01-04T11:37:44.386Z,25.33
2019-01-04T11:41:05.062Z,17.03
2019-01-04T11:44:16.790Z,26.90
2019-01-04T11:47:10.788Z,18.17
2019-01-04T11:50:12.913Z,15.37
2019-01-04T11:52:52.596Z,16.80
2019-01-04T11:55:21.756Z,19.70
2019-01-04T11:57:50.925Z,21.10
2019-01-04T12:00:20.152Z,17.00
2019-01-04T12:02:49.505Z,16.80
2019-01-04T12:05:18.777Z,15.47
2019-01-04T12:07:48.035Z,16.63
2019-01-04T12:10:17.486Z,17.23
2019-01-04T12:12:47.486Z,16.37
2019-01-04T12:15:16.769Z,17.53
2019-01-04T12:17:46.083Z,14.43
2019-01-04T12:20:15.822Z,15.83
2019-01-04T12:22:45.154Z,15.70
2019-01-04T12:25:14.890Z,15.47
2019-01-04T12:27:44.145Z,15.70
2019-01-04T12:30:13.365Z,14.47
2019-01-04T12:32:42.805Z,16.07
2019-01-04T12:35:12.372Z,14.47
2019-01-04T12:37:41.938Z,12.07
2019-01-04T12:40:12.280Z,12.20
2019-01-04T12:42:41.570Z,11.17
2019-01-04T12:45:11.737Z,16.50
2019-01-04T12:47:41.153Z,11.47
2019-01-04T12:50:10.424Z,11.63
2019-01-04T12:52:39.698Z,14.53
2019-01-04T12:55:09.542Z,10.93
2019-01-04T12:57:38.717Z,10.47
2019-01-04T13:00:10.261Z,13.60
2019-01-04T13:02:40.176Z,10.70
2019-01-04T13:05:09.581Z,11.43
2019-01-04T13:07:38.832Z,14.50
2019-01-04T13:10:08.406Z,10.07
2019-01-04T13:12:37.965Z,18.10
2019-01-04T13:15:07.671Z,13.67
2019-01-04T13:17:37.797Z,41.77
2019-01-04T13:20:07.133Z,13.00
2019-01-04T13:22:36.731Z,22.60
2019-01-04T13:25:06.586Z,20.03
2019-01-04T13:27:35.813Z,14.67
2019-01-04T13:30:05.456Z,18.00
2019-01-04T13:32:34.686Z,14.33
2019-01-04T13:35:04.028Z,14.70
2019-01-04T13:37:33.570Z,13.37
2019-01-04T13:40:03.190Z,9.37
2019-01-04T13:42:32.424Z,9.20
2019-01-04T13:45:01.798Z,11.67
2019-01-04T13:47:32.313Z,10.57
2019-01-04T13:50:01.871Z,10.47
2019-01-04T13:52:31.095Z,13.50
2019-01-04T13:55:00.254Z,10.60
2019-01-04T13:57:29.494Z,7.60
2019-01-04T13:59:58.968Z,5.63
2019-01-04T14:02:28.490Z,11.50
2019-01-04T14:04:57.750Z,10.50
2019-01-04T14:07:26.957Z,10.03
2019-01-04T14:09:56.497Z,15.50
2019-01-04T14:12:25.715Z,16.73
2019-01-04T14:14:54.909Z,12.73
2019-01-04T14:17:24.482Z,15.80
2019-01-04T14:19:53.635Z,14.33
2019-01-04T14:22:22.878Z,14.93
2019-01-04T14:24:52.106Z,15.07
2019-01-04T14:27:21.284Z,19.33
2019-01-04T14:29:50.561Z,13.53
2019-01-04T14:32:19.788Z,14.73
2019-01-04T14:34:49.043Z,12.90
2019-01-04T14:37:18.486Z,14.33
2019-01-04T14:39:48.043Z,13.97
2019-01-04T14:42:17.394Z,11.80
2019-01-04T14:44:46.711Z,15.37
2019-01-04T14:47:16.156Z,15.33
2019-01-04T14:49:45.530Z,13.20
2019-01-04T14:52:14.715Z,15.73
2019-01-04T14:54:44.217Z,12.47
2019-01-04T14:57:13.404Z,11.83
2019-01-04T14:59:42.576Z,12.57
2019-01-04T15:02:12.218Z,10.83
2019-01-04T15:04:41.505Z,11.63
2019-01-04T15:07:10.823Z,9.87
2019-01-04T15:09:40.406Z,11.77
2019-01-04T15:12:09.581Z,10.27
2019-01-04T15:14:39.045Z,14.10
2019-01-04T15:17:08.199Z,10.10
2019-01-04T15:19:39.088Z,9.43
2019-01-04T15:22:08.302Z,11.20
2019-01-04T15:24:37.495Z,13.00
2019-01-04T15:27:06.901Z,10.53
2019-01-04T15:29:36.395Z,7.67
2019-01-04T15:32:05.548Z,11.17
2019-01-04T15:34:34.701Z,10.00
2019-01-04T15:37:03.985Z,11.17
2019-01-04T15:39:33.233Z,11.80
2019-01-04T15:42:02.507Z,11.33
2019-01-04T15:44:31.629Z,11.43
2019-01-04T15:47:00.879Z,11.53
2019-01-04T15:49:30.193Z,14.13
2019-01-04T15:51:59.329Z,13.97
2019-01-04T15:54:28.498Z,10.53
2019-01-04T15:56:57.689Z,12.50
2019-01-04T15:59:27.154Z,12.47
2019-01-04T16:01:56.361Z,10.90
2019-01-04T16:04:25.816Z,25.20
2019-01-04T16:06:55.059Z,16.27
2019-01-04T16:09:24.400Z,14.47
2019-01-04T16:11:53.904Z,14.20
2019-01-04T16:14:23.084Z,16.10
2019-01-04T16:16:52.361Z,14.50
2019-01-04T16:19:21.873Z,18.30
2019-01-04T16:21:51.151Z,15.70
2019-01-04T16:24:20.426Z,18.17
2019-01-04T16:26:49.626Z,15.93
2019-01-04T16:29:19.065Z,23.57
2019-01-04T16:31:48.591Z,24.37
2019-01-04T16:34:17.764Z,13.40
2019-01-04T16:36:46.944Z,16.50
2019-01-04T16:39:16.657Z,11.50
2019-01-04T16:41:47.176Z,13.47
2019-01-04T16:44:16.691Z,14.00
2019-01-04T16:46:45.930Z,15.00
2019-01-04T16:49:15.169Z,14.33
2019-01-04T16:51:44.385Z,16.30
2019-01-04T16:54:13.636Z,10.30
2019-01-04T16:56:42.924Z,14.30
2019-01-04T16:59:12.460Z,14.13
2019-01-04T17:01:42.013Z,17.47
2019-01-04T17:04:11.560Z,11.27
2019-01-04T17:06:40.818Z,7.20
2019-01-04T17:09:11.373Z,14.73
2019-01-04T17:11:40.642Z,19.87
2019-01-04T17:14:09.793Z,8.77
2019-01-04T17:16:38.959Z,11.80
2019-01-04T17:19:08.120Z,19.60
2019-01-04T17:21:37.725Z,9.07
2019-01-04T17:24:07.173Z,8.07
2019-01-04T17:26:36.423Z,11.10
2019-01-04T17:29:05.829Z,8.70
2019-01-04T17:31:35.036Z,13.43
2019-01-04T17:34:04.474Z,10.67
2019-01-04T17:36:33.889Z,11.53
2019-01-04T17:39:04.278Z,8.70
2019-01-04T17:41:33.864Z,9.10
2019-01-04T17:44:03.505Z,7.27
2019-01-04T17:46:32.838Z,11.23
2019-01-04T17:49:02.057Z,9.63
2019-01-04T17:51:31.440Z,8.80
2019-01-04T17:54:00.900Z,11.30
2019-01-04T17:56:30.072Z,10.33
2019-01-04T17:58:59.325Z,11.47
2019-01-04T18:01:28.573Z,14.50
2019-01-04T18:03:57.862Z,15.23
2019-01-04T18:06:27.072Z,13.10
2019-01-04T18:08:56.378Z,11.17
2019-01-04T18:11:25.629Z,8.73
2019-01-04T18:13:54.866Z,12.73
2019-01-04T18:16:24.339Z,12.10
2019-01-04T18:18:53.592Z,12.60
2019-01-04T18:21:22.740Z,12.40
2019-01-04T18:23:52.230Z,9.53
2019-01-04T18:26:24.443Z,8.17
2019-01-04T18:28:52.696Z,12.97
2019-01-04T18:31:22.168Z,12.63
2019-01-04T18:33:51.507Z,9.80
2019-01-04T18:36:21.110Z,11.53
2019-01-04T18:38:50.626Z,10.90
2019-01-04T18:41:19.887Z,10.60
2019-01-04T18:43:49.048Z,10.60
2019-01-04T18:46:18.323Z,10.17
2019-01-04T18:48:47.649Z,12.40
2019-01-04T18:51:16.950Z,14.77
2019-01-04T18:53:46.144Z,13.47
2019-01-04T18:56:15.566Z,10.07
2019-01-04T18:58:44.844Z,13.20
2019-01-04T19:01:14.133Z,12.53
2019-01-04T19:03:43.461Z,12.50
2019-01-04T19:06:13.025Z,13.13
2019-01-04T19:08:42.262Z,12.40
2019-01-04T19:11:12.502Z,14.27
2019-01-04T19:13:41.754Z,13.03
2019-01-04T19:16:11.192Z,10.37
2019-01-04T19:18:40.357Z,10.60
2019-01-04T19:21:10.094Z,9.67
2019-01-04T19:23:39.795Z,10.23
2019-01-04T19:26:09.061Z,12.43
2019-01-04T19:28:38.291Z,12.07
2019-01-04T19:31:07.537Z,10.13
2019-01-04T19:33:36.824Z,10.67
2019-01-04T19:36:06.098Z,9.77
2019-01-04T19:38:35.352Z,10.43
2019-01-04T19:41:04.557Z,9.60
2019-01-04T19:43:33.905Z,8.93
2019-01-04T19:46:03.386Z,10.30
2019-01-04T19:48:32.638Z,12.13
2019-01-04T19:51:02.142Z,10.10
2019-01-04T19:53:31.578Z,11.43
2019-01-04T19:56:00.724Z,10.63
2019-01-04T19:58:29.879Z,11.03
2019-01-04T20:00:59.033Z,10.73
2019-01-04T20:03:28.304Z,11.10
2019-01-04T20:06:58.094Z,10.50
2019-01-04T20:10:36.533Z,11.57
2019-01-04T20:14:15.820Z,11.03
2019-01-04T20:17:05.605Z,10.53
2019-01-04T20:20:09.453Z,10.57
2019-01-04T20:22:56.462Z,11.60
2019-01-04T20:25:43.800Z,13.53
2019-01-04T20:28:40.745Z,13.53
2019-01-04T20:31:36.467Z,12.40
2019-01-04T20:34:37.163Z,12.73
2019-01-04T20:37:25.655Z,13.17
2019-01-04T20:40:20.446Z,11.93
2019-01-04T20:43:08.927Z,13.37
2019-01-04T20:45:59.997Z,14.33
2019-01-04T20:48:57.201Z,14.33
2019-01-04T20:51:48.435Z,10.77
2019-01-04T20:54:35.594Z,10.83
2019-01-04T20:57:35.926Z,13.20
2019-01-04T21:00:24.674Z,10.63
2019-01-04T21:03:12.918Z,10.47
2019-01-04T21:06:07.385Z,9.83
2019-01-04T21:09:09.890Z,11.50
2019-01-04T21:12:06.426Z,9.67
2019-01-04T21:14:57.446Z,9.27
2019-01-04T21:17:45.656Z,9.80
2019-01-04T21:20:39.634Z,12.60
2019-01-04T21:23:26.450Z,11.20
2019-01-04T21:26:23.711Z,12.37
2019-01-04T21:29:17.685Z,10.70
2019-01-04T21:32:08.876Z,11.00
2019-01-04T21:34:56.833Z,11.80
2019-01-04T21:38:03.234Z,12.53
2019-01-04T21:40:59.859Z,12.70
2019-01-04T21:43:48.041Z,11.50
2019-01-04T21:46:34.968Z,12.37
2019-01-04T21:49:26.375Z,11.23
2019-01-04T21:52:13.844Z,15.37
2019-01-04T21:55:02.183Z,12.50
2019-01-04T21:57:59.137Z,12.83
2019-01-04T22:00:46.806Z,15.13
2019-01-04T22:03:34.342Z,12.40
2019-01-04T22:06:15.813Z,16.07
2019-01-04T22:09:04.349Z,13.60
2019-01-04T22:11:48.232Z,12.60
2019-01-04T22:14:34.825Z,13.17
2019-01-04T22:17:21.784Z,16.10
2019-01-04T22:20:08.504Z,13.80
2019-01-04T22:23:00.062Z,13.77
2019-01-04T22:25:47.430Z,15.33
2019-01-04T22:28:44.874Z,16.60
2019-01-04T22:31:44.888Z,16.00
2019-01-04T22:34:36.459Z,15.53
2019-01-04T22:37:25.046Z,13.50
2019-01-04T22:40:21.881Z,15.60
2019-01-04T22:43:16.303Z,15.33
2019-01-04T22:46:03.856Z,15.10
2019-01-04T22:49:09.994Z,13.97
2019-01-04T22:51:56.447Z,16.67
2019-01-04T22:54:47.637Z,18.37
2019-01-04T22:57:41.162Z,17.37
2019-01-04T23:00:45.713Z,45.93
2019-01-04T23:03:36.990Z,41.43
2019-01-04T23:06:40.345Z,38.93
2019-01-04T23:09:35.083Z,15.47
2019-01-04T23:12:21.677Z,17.83
2019-01-04T23:15:10.114Z,18.73
2019-01-04T23:17:58.665Z,18.20
2019-01-04T23:20:46.862Z,20.17
2019-01-04T23:23:53.333Z,19.63
2019-01-04T23:26:44.529Z,18.77
2019-01-04T23:29:31.453Z,23.17
2019-01-04T23:32:34.839Z,18.97
2019-01-04T23:35:21.394Z,20.47
2019-01-04T23:38:08.254Z,18.17
2019-01-04T23:40:56.692Z,15.13
2019-01-04T23:43:51.049Z,17.43
2019-01-04T23:46:42.010Z,20.33
2019-01-04T23:49:42.017Z,20.53
2019-01-04T23:52:26.818Z,24.50
2019-01-04T23:55:12.426Z,18.30
2019-01-04T23:57:59.201Z,18.23
